F/V Adeline Stephen — FGUF — position and weather

sailwx.info

Track history (hours):
 
Tides and Currents Weather Stations Pressure Air Temp Water Temp Dewpoint Dewpoint Depression Visibility Wind Speed Wind Dir Waves Ship Positions

F/V Adeline Stephen

Last reported at 2017-Aug-12 13:15 UTC. Time now 2017-Aug-18 23:57 UTC.
Position N 47°25' W 003°35'.

Length 18 m.

Type: Fishing. MMSI: 228929000.

Date/timePositionNaut miles runAvg speedWind from/ knotsBaromVisibWave heightAir tempDewpointWater temp
2017-Aug-12 13:15N 47°25' W 003°35'2 8.4
2017-Aug-12 13:00N 47°26' W 003°33'4 8.6
2017-Aug-12 12:30N 47°30' W 003°29'4 8.5
2017-Aug-12 12:00N 47°33' W 003°26'4 8.5
2017-Aug-12 11:30N 47°37' W 003°23'4 8.5
2017-Aug-12 11:00N 47°41' W 003°22'3 0.0
2017-Aug-10 07:33N 47°44' W 003°22'0 0.0
2017-Aug-10 07:30N 47°44' W 003°22'0 0.0
2017-Aug-10 07:01N 47°44' W 003°22'3 6.6
2017-Aug-10 06:30N 47°41' W 003°24'3 0.5
2017-Aug-10 00:02N 47°40' W 003°29'0 5.4
2017-Aug-10 00:00N 47°40' W 003°29'3 6.4
2017-Aug-09 23:31N 47°41' W 003°25'3 6.6
2017-Aug-09 23:00N 47°44' W 003°22'0 0.0
2017-Aug-09 22:31N 47°44' W 003°22'1 2.9
2017-Aug-09 22:01N 47°42' W 003°22'4 7.9
2017-Aug-09 21:30N 47°40' W 003°27'7 6.3
2017-Aug-09 20:26N 47°34' W 003°30'1 2.6
2017-Aug-09 20:00N 47°35' W 003°32'10 1.9
2017-Aug-09 14:42N 47°25' W 003°29'1 3.1
2017-Aug-09 14:31N 47°25' W 003°29'1 3.0
2017-Aug-09 14:01N 47°27' W 003°30'1 1.5
2017-Aug-09 13:28N 47°26' W 003°31'3 3.0
2017-Aug-09 12:28N 47°24' W 003°27'2 3.5
2017-Aug-09 12:01N 47°26' W 003°28'2 3.7
2017-Aug-09 11:31N 47°27' W 003°29'1 2.4
2017-Aug-09 11:00N 47°28' W 003°30'2 3.1
2017-Aug-09 10:30N 47°27' W 003°29'2 3.3
2017-Aug-09 09:57N 47°25' W 003°28'1 2.2
2017-Aug-09 09:31N 47°25' W 003°28'2 3.6
2017-Aug-09 09:01N 47°26' W 003°30'1 1.3
2017-Aug-09 07:55N 47°26' W 003°28'1 2.7
2017-Aug-09 07:30N 47°25' W 003°30'2 3.8
2017-Aug-09 07:00N 47°27' W 003°31'1 2.8
2017-Aug-09 06:31N 47°28' W 003°32'2 3.7
2017-Aug-09 06:00N 47°30' W 003°32'2 3.5
2017-Aug-09 05:31N 47°32' W 003°31'2 3.5
2017-Aug-09 05:01N 47°33' W 003°31'2 3.6
2017-Aug-09 04:30N 47°34' W 003°34'2 3.7
2017-Aug-09 04:00N 47°36' W 003°36'0 0.3
2017-Aug-09 03:30N 47°36' W 003°36'0 0.4
2017-Aug-09 03:00N 47°36' W 003°36'0 0.4
2017-Aug-09 02:29N 47°36' W 003°36'2 2.4
2017-Aug-09 01:44N 47°35' W 003°34'1 2.5
2017-Aug-09 01:23N 47°34' W 003°33'1 2.5
2017-Aug-09 01:00N 47°34' W 003°31'1 1.6
2017-Aug-09 00:30N 47°33' W 003°31'2 3.3
2017-Aug-08 23:52N 47°31' W 003°30'1 3.3
2017-Aug-08 23:31N 47°30' W 003°30'1 2.1
2017-Aug-08 22:51N 47°29' W 003°32'1 3.5
2017-Aug-08 22:29N 47°31' W 003°32'2 3.4
2017-Aug-08 21:52N 47°33' W 003°31'1 3.1
2017-Aug-08 21:30N 47°34' W 003°32'2 3.4
2017-Aug-08 20:59N 47°34' W 003°34'0 0.3
2017-Aug-08 19:33N 47°34' W 003°34'1 3.2
2017-Aug-08 19:12N 47°34' W 003°32'1 3.2
2017-Aug-08 19:01N 47°33' W 003°31'2 3.2
2017-Aug-08 18:30N 47°32' W 003°31'2 3.4
2017-Aug-08 18:01N 47°30' W 003°32'2 3.3
2017-Aug-08 17:29N 47°28' W 003°32'1 2.9
2017-Aug-08 17:01N 47°27' W 003°31'1 2.3
2017-Aug-08 16:30N 47°28' W 003°31'1 3.0
2017-Aug-08 16:01N 47°27' W 003°32'1 2.2
2017-Aug-08 15:30N 47°26' W 003°33'2 3.1
2017-Aug-08 15:00N 47°25' W 003°31'2 2.9
2017-Aug-08 14:18N 47°24' W 003°28'1 3.4
2017-Aug-08 14:01N 47°25' W 003°28'2 3.8
2017-Aug-08 13:31N 47°27' W 003°30'1 2.8
2017-Aug-08 13:01N 47°28' W 003°32'2 3.5
2017-Aug-08 12:30N 47°28' W 003°34'1 1.7
2017-Aug-08 12:00N 47°28' W 003°36'2 3.2
2017-Aug-08 11:31N 47°26' W 003°36'8 5.1
2017-Aug-08 09:59N 47°28' W 003°48'1 2.9
2017-Aug-08 09:28N 47°29' W 003°48'4 0.5
2017-Aug-08 02:14N 47°27' W 003°44'2 9.1
2017-Aug-08 01:59N 47°29' W 003°43'4 8.8
2017-Aug-08 01:31N 47°32' W 003°39'4 8.8
2017-Aug-08 01:00N 47°36' W 003°36'4 8.7
2017-Aug-08 00:31N 47°40' W 003°32'4 8.5
2017-Aug-08 00:01N 47°41' W 003°26'4 7.3
2017-Aug-07 23:31N 47°43' W 003°22'  
2017-Aug-04 22:59N 47°44' W 003°22'4 8.5
2017-Aug-04 22:30N 47°41' W 003°26'2 3.2
2017-Aug-04 22:00N 47°40' W 003°28'17 1.1
2017-Aug-04 06:01N 47°25' W 003°41'0 3.7
2017-Aug-04 06:00N 47°25' W 003°41'16 0.5
2017-Aug-03 01:13N 47°40' W 003°32'2 7.7
2017-Aug-03 01:00N 47°40' W 003°29'4 8.1
2017-Aug-03 00:30N 47°41' W 003°24'3 5.4
2017-Aug-03 00:00N 47°44' W 003°22'0 0.1
2017-Aug-02 23:30N 47°44' W 003°22'0 0.2
2017-Aug-02 23:00N 47°44' W 003°22'2 4.0
2017-Aug-02 22:30N 47°42' W 003°23'5 9.0
2017-Aug-02 22:00N 47°40' W 003°29'4 5.4
2017-Aug-02 21:17N 47°37' W 003°32'4 3.8
2017-Aug-02 20:08N 47°32' W 003°31'3 2.1
2017-Aug-02 18:47N 47°32' W 003°36'1 3.4
2017-Aug-02 18:27N 47°32' W 003°37'  
Track history (hours):
 
Tides and Currents Weather Stations Pressure Air Temp Water Temp Dewpoint Dewpoint Depression Visibility Wind Speed Wind Dir Waves Ship Positions

F/V Adeline Stephen

Last reported at 2017-Aug-12 13:15 UTC. Time now 2017-Aug-18 23:57 UTC.
Position N 47°25' W 003°35'.

Length 18 m.

Type: Fishing. MMSI: 228929000.

Date/timePositionNaut miles runAvg speedWind from/ knotsBaromVisibWave heightAir tempDewpointWater temp
2017-Aug-12 13:15N 47°25' W 003°35'2 8.4
2017-Aug-12 13:00N 47°26' W 003°33'4 8.6
2017-Aug-12 12:30N 47°30' W 003°29'4 8.5
2017-Aug-12 12:00N 47°33' W 003°26'4 8.5
2017-Aug-12 11:30N 47°37' W 003°23'4 8.5
2017-Aug-12 11:00N 47°41' W 003°22'3 0.0
2017-Aug-10 07:33N 47°44' W 003°22'0 0.0
2017-Aug-10 07:30N 47°44' W 003°22'0 0.0
2017-Aug-10 07:01N 47°44' W 003°22'3 6.6
2017-Aug-10 06:30N 47°41' W 003°24'3 0.5
2017-Aug-10 00:02N 47°40' W 003°29'0 5.4
2017-Aug-10 00:00N 47°40' W 003°29'3 6.4
2017-Aug-09 23:31N 47°41' W 003°25'3 6.6
2017-Aug-09 23:00N 47°44' W 003°22'0 0.0
2017-Aug-09 22:31N 47°44' W 003°22'1 2.9
2017-Aug-09 22:01N 47°42' W 003°22'4 7.9
2017-Aug-09 21:30N 47°40' W 003°27'7 6.3
2017-Aug-09 20:26N 47°34' W 003°30'1 2.6
2017-Aug-09 20:00N 47°35' W 003°32'10 1.9
2017-Aug-09 14:42N 47°25' W 003°29'1 3.1
2017-Aug-09 14:31N 47°25' W 003°29'1 3.0
2017-Aug-09 14:01N 47°27' W 003°30'1 1.5
2017-Aug-09 13:28N 47°26' W 003°31'3 3.0
2017-Aug-09 12:28N 47°24' W 003°27'2 3.5
2017-Aug-09 12:01N 47°26' W 003°28'2 3.7
2017-Aug-09 11:31N 47°27' W 003°29'1 2.4
2017-Aug-09 11:00N 47°28' W 003°30'2 3.1
2017-Aug-09 10:30N 47°27' W 003°29'2 3.3
2017-Aug-09 09:57N 47°25' W 003°28'1 2.2
2017-Aug-09 09:31N 47°25' W 003°28'2 3.6
2017-Aug-09 09:01N 47°26' W 003°30'1 1.3
2017-Aug-09 07:55N 47°26' W 003°28'1 2.7
2017-Aug-09 07:30N 47°25' W 003°30'2 3.8
2017-Aug-09 07:00N 47°27' W 003°31'1 2.8
2017-Aug-09 06:31N 47°28' W 003°32'2 3.7
2017-Aug-09 06:00N 47°30' W 003°32'2 3.5
2017-Aug-09 05:31N 47°32' W 003°31'2 3.5
2017-Aug-09 05:01N 47°33' W 003°31'2 3.6
2017-Aug-09 04:30N 47°34' W 003°34'2 3.7
2017-Aug-09 04:00N 47°36' W 003°36'0 0.3
2017-Aug-09 03:30N 47°36' W 003°36'0 0.4
2017-Aug-09 03:00N 47°36' W 003°36'0 0.4
2017-Aug-09 02:29N 47°36' W 003°36'2 2.4
2017-Aug-09 01:44N 47°35' W 003°34'1 2.5
2017-Aug-09 01:23N 47°34' W 003°33'1 2.5
2017-Aug-09 01:00N 47°34' W 003°31'1 1.6
2017-Aug-09 00:30N 47°33' W 003°31'2 3.3
2017-Aug-08 23:52N 47°31' W 003°30'1 3.3
2017-Aug-08 23:31N 47°30' W 003°30'1 2.1
2017-Aug-08 22:51N 47°29' W 003°32'1 3.5
2017-Aug-08 22:29N 47°31' W 003°32'2 3.4
2017-Aug-08 21:52N 47°33' W 003°31'1 3.1
2017-Aug-08 21:30N 47°34' W 003°32'2 3.4
2017-Aug-08 20:59N 47°34' W 003°34'0 0.3
2017-Aug-08 19:33N 47°34' W 003°34'1 3.2
2017-Aug-08 19:12N 47°34' W 003°32'1 3.2
2017-Aug-08 19:01N 47°33' W 003°31'2 3.2
2017-Aug-08 18:30N 47°32' W 003°31'2 3.4
2017-Aug-08 18:01N 47°30' W 003°32'2 3.3
2017-Aug-08 17:29N 47°28' W 003°32'1 2.9
2017-Aug-08 17:01N 47°27' W 003°31'1 2.3
2017-Aug-08 16:30N 47°28' W 003°31'1 3.0
2017-Aug-08 16:01N 47°27' W 003°32'1 2.2
2017-Aug-08 15:30N 47°26' W 003°33'2 3.1
2017-Aug-08 15:00N 47°25' W 003°31'2 2.9
2017-Aug-08 14:18N 47°24' W 003°28'1 3.4
2017-Aug-08 14:01N 47°25' W 003°28'2 3.8
2017-Aug-08 13:31N 47°27' W 003°30'1 2.8
2017-Aug-08 13:01N 47°28' W 003°32'2 3.5
2017-Aug-08 12:30N 47°28' W 003°34'1 1.7
2017-Aug-08 12:00N 47°28' W 003°36'2 3.2
2017-Aug-08 11:31N 47°26' W 003°36'8 5.1
2017-Aug-08 09:59N 47°28' W 003°48'1 2.9
2017-Aug-08 09:28N 47°29' W 003°48'4 0.5
2017-Aug-08 02:14N 47°27' W 003°44'2 9.1
2017-Aug-08 01:59N 47°29' W 003°43'4 8.8
2017-Aug-08 01:31N 47°32' W 003°39'4 8.8
2017-Aug-08 01:00N 47°36' W 003°36'4 8.7
2017-Aug-08 00:31N 47°40' W 003°32'4 8.5
2017-Aug-08 00:01N 47°41' W 003°26'4 7.3
2017-Aug-07 23:31N 47°43' W 003°22'  
2017-Aug-04 22:59N 47°44' W 003°22'4 8.5
2017-Aug-04 22:30N 47°41' W 003°26'2 3.2
2017-Aug-04 22:00N 47°40' W 003°28'17 1.1
2017-Aug-04 06:01N 47°25' W 003°41'0 3.7
2017-Aug-04 06:00N 47°25' W 003°41'16 0.5
2017-Aug-03 01:13N 47°40' W 003°32'2 7.7
2017-Aug-03 01:00N 47°40' W 003°29'4 8.1
2017-Aug-03 00:30N 47°41' W 003°24'3 5.4
2017-Aug-03 00:00N 47°44' W 003°22'0 0.1
2017-Aug-02 23:30N 47°44' W 003°22'0 0.2
2017-Aug-02 23:00N 47°44' W 003°22'2 4.0
2017-Aug-02 22:30N 47°42' W 003°23'5 9.0
2017-Aug-02 22:00N 47°40' W 003°29'4 5.4
2017-Aug-02 21:17N 47°37' W 003°32'4 3.8
2017-Aug-02 20:08N 47°32' W 003°31'3 2.1
2017-Aug-02 18:47N 47°32' W 003°36'1 3.4
2017-Aug-02 18:27N 47°32' W 003°37'  

Dump ship's entire track history